Aeroporto :
LOGIN :

Iscrizione | Disclaimer

   EN    FR    IT 

 










Sommario :    VFR   VFR Marginale   IFR   IFR Intensivo   IFR Molto Intensivo
Visibilità : 
Base nubi : 
>= 8 km
>= 3000ft
5 / 8 km
1000 / 3000 ft
1500m / 5 km
500 / 1000 ft
800 / 1500m
200 / 500 ft
< 800m
< 200 ft
Simboli :   Temporali  Nebbia  Neve Forte  Precipitazioni Forti  Vento > 20 kt
SIGMETs :   Varie  Temporali  Ghiacco  Turbolenza  Onda orograficha  Ceneri Vulcaniche







- Altitudine del aeroporto : 13 ft
- Codice IATA : OST


EBOS - Oostend bruges Int.

ULTIMO METAR :
  • 231720Z 19015KT 3200 -RADZ BKN004 BKN006 10/08 Q1017 BECMG 20017G27KT

METARs OBSOLETI :
  • 231650Z 20016KT 4800 -RADZ BKN005 BKN006 10/08 Q1017 BECMG 20017G27KT
  • 231620Z 19014KT 4800 -RADZ BKN005 BKN006 09/08 Q1017 BECMG 20017G27KT
  • 231550Z 19015KT 3000 -RADZ BKN004 BKN006 09/08 Q1017 BECMG 20020G30KT
  • 231520Z 19014KT 3000 -RADZ SCT004 BKN006 09/08 Q1017 BECMG 20020G30KT
  • 231450Z 20016KT 4000 -RADZ BKN005 BKN007 09/08 Q1017 BECMG 20020G30KT

TAF TAF EBOS
Valido dal 23 a 18 ore il 25 a 00 ore UTC


231703Z 2318/2424 20015G25KT 9999 SCT007 BKN011
TEMPO 2318/2403 3500 -DZ BR SCT004 BKN007
PROB30
TEMPO 2318/2401 2000 BKN004
BECMG 2401/2403 SCT015 BKN030
BECMG 2406/2408 20020G40KT
TEMPO 2415/2422 4000 RA SHRA SCT010 BKN014
BECMG 2416/2418 22015G25KT
Nessun NOTAM noto per questo aeroporto.



MetMap, La meteo Aeronautica in un colpo d'occhio ! - Copyright ORBIFLY Dicembre 2007 - Disclaimer

ORBIFLY MET'MAP TEAM :

Programmazione e sviluppo : Alexandra Zaïnal
Concezione e sviluppo : Baudouin d'Aumeries
Co-Programmazione e sviluppo : Marc-Olivier Méhu
Supporto tecnico e logistico : Manuel Goepfert
Aiuto per la traduzione : Arnaldo La Scala

Contatto : metmap@orbifly.com




FONTI E CREDITI :

   NOAA